Terminal Aerodrome Forecast
Issued by NWS Sioux Falls, SD

Home | Current Version | Previous Version | Text Only | Print | Product List | Glossary Off
Versions: 1 2 3 4 5 6 7 8 9 10 11 12 13 14 15

000
FTUS43 KFSD 241100
TAFHON
TAF
KHON 241127Z 2412/2512 34009KT P6SM BKN120
     FM241500 33014KT P6SM SKC
     FM241700 32020G28KT P6SM SKC
     FM250100 28008KT P6SM SKC
     FM250800 19004KT P6SM BKN120=

USA.gov is the U.S. government's official web portal to all federal, state and local government web resources and services.